Flight Track Log - Related Links

Times and Time Zones

All times are in EDT time to prevent confusion due to time zone crossing. See the N12123 flight status page for this flight to view local times or setup timezone preferences in your user account.

Time Position Orientation Groundspeed Altitude Reporting Facility
EDT Latitude Longitude Course Direction KTS MPH feet Rate Location/Type
Sun 07:17:02 PM 44.5544 -123.0303 215° Southwest 117 135 2,500  Level Seattle Center
Sun 07:18:03 PM 44.5858 -123.0239 North 116 133 2,600 443 Climbing Seattle Center
Sun 07:19:04 PM 44.6136 -123.0164 11° North 107 123 3,400 738 Climbing Seattle Center
Sun 07:20:05 PM 44.6400 -123.0056 16° North 100 115 4,100 689 Climbing Seattle Center
Sun 07:21:06 PM 44.6656 -122.9958 15° North 98 113 4,800 689 Climbing Seattle Center
Sun 07:22:00 PM 45.0965 -122.8304 215° Southwest  Level Estimated
Sun 07:22:07 PM 44.6897 -122.9864 16° North 93 107 5,500  Level Seattle Center
Sun 07:23:07 PM 44.7128 -122.9781 14° North 89 102 6,100 298 Climbing Seattle Center
Sun 07:24:08 PM 44.7400 -122.9697 12° North 96 110 6,100  Level Seattle Center
Sun 07:25:09 PM 44.7722 -122.9586 14° North 113 130 6,100 -49 Level Seattle Center
Sun 07:26:10 PM 44.8028 -122.9461 16° North 115 132 6,000  Descending Seattle Center
Sun 07:27:11 PM 44.8336 -122.9353 14° North 115 132 6,100  Climbing Seattle Center
Sun 07:28:12 PM 44.8622 -122.9253 14° North 110 127 6,000 -49 Descending Seattle Center
Sun 07:29:13 PM 44.8981 -122.9128 14° North 110 127 6,000  Level Seattle Center
Sun 07:30:14 PM 44.9281 -122.9000 17° North 111 128 6,000  Level Seattle Center
Sun 07:31:15 PM 44.9572 -122.8847 20° North 113 130 6,000  Level Seattle Center
Sun 07:32:29 PM 44.9969 -122.8700 15° North 120 138 6,000  Level Seattle Center
Sun 07:33:11 PM 45.0175 -122.8647 10° North 110 127 6,000 56 Level Seattle Center
Sun 07:34:17 PM 45.0478 -122.8556 12° North 110 127 6,100  Climbing Seattle Center
Sun 07:35:18 PM 45.0783 -122.8411 18° North 113 130 6,000 -98 Descending Seattle Center
Sun 07:36:19 PM 45.1092 -122.8258 19° North 117 135 5,900 -246 Descending Seattle Center
Sun 07:37:20 PM 45.1400 -122.8083 22° Northeast 119 137 5,500 -443 Descending Seattle Center
Sun 07:38:21 PM 45.1672 -122.7844 32° Northeast 117 135 5,000 -590 Descending Seattle Center
Sun 07:39:22 PM 45.1967 -122.7592 31° Northeast 122 140 4,300 -517 Descending Seattle Center
Sun 07:40:17 PM 45.2289 -122.7308 32° Northeast 126 145 4,000 -155 Descending Seattle Center
Sun 07:41:18 PM 45.2564 -122.7075 31° Northeast 119 137 4,000  Level Seattle Center
Sun 07:42:19 PM 45.2864 -122.6831 30° Northeast 122 140 4,000  Level Seattle Center
Sun 07:43:26 PM 45.3183 -122.6500 36° Northeast 124 143 4,000 -50 Level Seattle Center
Sun 07:44:20 PM 45.3486 -122.6486 North 115 132 3,900 -472 Descending Seattle Center
Sun 07:45:33 PM 45.3892 -122.6567 352° North 123 142 3,000 -443 Descending Seattle Center
Sun 07:46:22 PM 45.4136 -122.6592 356° North 113 130 3,000 -52 Level Seattle Center
Sun 07:47:29 PM 45.4414 -122.6775 335° Northwest 124 143 2,900  Descending Seattle Center
Sun 07:48:23 PM 45.4461 -122.7136 281° West 107 123 3,000 -209 Climbing Seattle Center
Sun 07:49:24 PM 45.4339 -122.7492 244° Southwest 121 139 2,500 -186 Descending Seattle Center
Sun 07:50:32 PM 45.4050 -122.7525 185° South 108 124 2,600 88 Climbing Seattle Center

Login

Don't have an account? Register now (free) for customized features, flight alerts, and more!